sensor_id;sensor_type;location;lat;lon;timestamp;P1;durP1;ratioP1;P2;durP2;ratioP2
81591;SDS011;71014;53.394;6.724;2023-10-19T00:02:04;14.90;;;8.40;;
81591;SDS011;71014;53.394;6.724;2023-10-19T00:04:31;14.52;;;9.00;;
81591;SDS011;71014;53.394;6.724;2023-10-19T00:06:59;14.40;;;8.90;;
81591;SDS011;71014;53.394;6.724;2023-10-19T00:09:25;16.17;;;9.50;;
81591;SDS011;71014;53.394;6.724;2023-10-19T00:11:56;14.52;;;8.73;;
81591;SDS011;71014;53.394;6.724;2023-10-19T00:14:22;12.80;;;8.32;;
81591;SDS011;71014;53.394;6.724;2023-10-19T00:16:51;13.60;;;8.07;;
81591;SDS011;71014;53.394;6.724;2023-10-19T00:19:29;16.38;;;8.55;;
81591;SDS011;71014;53.394;6.724;2023-10-19T00:21:55;15.60;;;9.02;;
81591;SDS011;71014;53.394;6.724;2023-10-19T00:24:27;16.95;;;8.80;;
81591;SDS011;71014;53.394;6.724;2023-10-19T00:26:56;16.25;;;9.40;;
81591;SDS011;71014;53.394;6.724;2023-10-19T00:29:30;19.23;;;9.38;;
81591;SDS011;71014;53.394;6.724;2023-10-19T00:31:59;22.13;;;10.55;;
81591;SDS011;71014;53.394;6.724;2023-10-19T00:34:27;18.17;;;9.07;;
81591;SDS011;71014;53.394;6.724;2023-10-19T00:36:54;18.52;;;10.23;;
81591;SDS011;71014;53.394;6.724;2023-10-19T00:39:21;19.27;;;10.32;;
81591;SDS011;71014;53.394;6.724;2023-10-19T00:41:49;16.20;;;9.45;;
81591;SDS011;71014;53.394;6.724;2023-10-19T00:44:15;12.98;;;7.88;;
81591;SDS011;71014;53.394;6.724;2023-10-19T00:46:49;19.00;;;9.73;;
81591;SDS011;71014;53.394;6.724;2023-10-19T00:49:27;20.35;;;11.13;;
81591;SDS011;71014;53.394;6.724;2023-10-19T00:51:54;16.25;;;10.15;;
81591;SDS011;71014;53.394;6.724;2023-10-19T00:54:34;14.68;;;10.68;;
81591;SDS011;71014;53.394;6.724;2023-10-19T00:57:03;18.08;;;9.95;;
81591;SDS011;71014;53.394;6.724;2023-10-19T00:59:32;15.93;;;10.00;;
81591;SDS011;71014;53.394;6.724;2023-10-19T01:02:04;16.17;;;9.85;;
81591;SDS011;71014;53.394;6.724;2023-10-19T01:04:44;14.93;;;9.13;;
81591;SDS011;71014;53.394;6.724;2023-10-19T01:07:16;23.02;;;11.20;;
81591;SDS011;71014;53.394;6.724;2023-10-19T01:09:48;13.32;;;8.70;;
81591;SDS011;71014;53.394;6.724;2023-10-19T01:12:18;17.70;;;9.90;;
81591;SDS011;71014;53.394;6.724;2023-10-19T01:15:02;13.57;;;8.27;;
81591;SDS011;71014;53.394;6.724;2023-10-19T01:17:31;17.35;;;10.73;;
81591;SDS011;71014;53.394;6.724;2023-10-19T01:19:59;20.52;;;10.40;;
81591;SDS011;71014;53.394;6.724;2023-10-19T01:22:27;16.48;;;10.57;;
81591;SDS011;71014;53.394;6.724;2023-10-19T01:24:53;15.57;;;8.98;;
81591;SDS011;71014;53.394;6.724;2023-10-19T01:27:20;20.58;;;10.32;;
81591;SDS011;71014;53.394;6.724;2023-10-19T01:29:47;20.83;;;12.90;;
81591;SDS011;71014;53.394;6.724;2023-10-19T01:32:17;19.20;;;11.07;;
81591;SDS011;71014;53.394;6.724;2023-10-19T01:34:43;18.25;;;9.85;;
81591;SDS011;71014;53.394;6.724;2023-10-19T01:37:09;20.00;;;10.45;;
81591;SDS011;71014;53.394;6.724;2023-10-19T01:39:37;19.38;;;11.35;;
81591;SDS011;71014;53.394;6.724;2023-10-19T01:42:04;19.13;;;11.18;;
81591;SDS011;71014;53.394;6.724;2023-10-19T01:44:32;17.00;;;10.65;;
81591;SDS011;71014;53.394;6.724;2023-10-19T01:47:01;18.50;;;11.27;;
81591;SDS011;71014;53.394;6.724;2023-10-19T01:49:27;20.52;;;11.70;;
81591;SDS011;71014;53.394;6.724;2023-10-19T01:51:53;22.10;;;11.35;;
81591;SDS011;71014;53.394;6.724;2023-10-19T01:54:23;18.45;;;13.05;;
81591;SDS011;71014;53.394;6.724;2023-10-19T01:56:52;19.20;;;10.98;;
81591;SDS011;71014;53.394;6.724;2023-10-19T01:59:25;23.75;;;12.75;;
81591;SDS011;71014;53.394;6.724;2023-10-19T02:01:57;16.77;;;9.32;;
81591;SDS011;71014;53.394;6.724;2023-10-19T02:04:23;19.13;;;11.65;;
81591;SDS011;71014;53.394;6.724;2023-10-19T02:06:50;22.13;;;12.55;;
81591;SDS011;71014;53.394;6.724;2023-10-19T02:09:17;19.40;;;12.00;;
81591;SDS011;71014;53.394;6.724;2023-10-19T02:11:49;14.80;;;9.10;;
81591;SDS011;71014;53.394;6.724;2023-10-19T02:14:17;15.30;;;9.38;;
81591;SDS011;71014;53.394;6.724;2023-10-19T02:16:49;23.15;;;11.95;;
81591;SDS011;71014;53.394;6.724;2023-10-19T02:19:21;21.50;;;10.77;;
81591;SDS011;71014;53.394;6.724;2023-10-19T02:21:48;20.85;;;12.68;;
81591;SDS011;71014;53.394;6.724;2023-10-19T02:24:14;18.95;;;12.30;;
81591;SDS011;71014;53.394;6.724;2023-10-19T02:26:41;22.23;;;11.95;;
81591;SDS011;71014;53.394;6.724;2023-10-19T02:29:07;17.63;;;11.20;;
81591;SDS011;71014;53.394;6.724;2023-10-19T02:31:34;23.13;;;12.57;;
81591;SDS011;71014;53.394;6.724;2023-10-19T02:34:03;23.60;;;11.43;;
81591;SDS011;71014;53.394;6.724;2023-10-19T02:36:30;18.42;;;11.63;;
81591;SDS011;71014;53.394;6.724;2023-10-19T02:38:56;18.48;;;11.82;;
81591;SDS011;71014;53.394;6.724;2023-10-19T02:41:30;16.63;;;10.88;;
81591;SDS011;71014;53.394;6.724;2023-10-19T02:43:56;21.50;;;11.05;;
81591;SDS011;71014;53.394;6.724;2023-10-19T02:46:41;19.90;;;12.13;;
81591;SDS011;71014;53.394;6.724;2023-10-19T02:49:07;15.48;;;9.63;;
81591;SDS011;71014;53.394;6.724;2023-10-19T02:51:40;18.75;;;10.63;;
81591;SDS011;71014;53.394;6.724;2023-10-19T02:54:07;17.70;;;10.13;;
81591;SDS011;71014;53.394;6.724;2023-10-19T02:56:35;14.85;;;9.98;;
81591;SDS011;71014;53.394;6.724;2023-10-19T02:59:01;13.07;;;10.15;;
81591;SDS011;71014;53.394;6.724;2023-10-19T03:01:31;13.98;;;9.60;;
81591;SDS011;71014;53.394;6.724;2023-10-19T03:03:59;14.13;;;9.18;;
81591;SDS011;71014;53.394;6.724;2023-10-19T03:06:29;18.70;;;10.15;;
81591;SDS011;71014;53.394;6.724;2023-10-19T03:08:59;14.63;;;10.27;;
81591;SDS011;71014;53.394;6.724;2023-10-19T03:11:29;16.65;;;8.65;;
81591;SDS011;71014;53.394;6.724;2023-10-19T03:13:59;12.73;;;8.32;;
81591;SDS011;71014;53.394;6.724;2023-10-19T03:16:29;14.35;;;8.88;;
81591;SDS011;71014;53.394;6.724;2023-10-19T03:18:55;17.38;;;9.98;;
81591;SDS011;71014;53.394;6.724;2023-10-19T03:21:21;16.60;;;9.10;;
81591;SDS011;71014;53.394;6.724;2023-10-19T03:23:58;13.32;;;9.18;;
81591;SDS011;71014;53.394;6.724;2023-10-19T03:26:27;14.80;;;8.90;;
81591;SDS011;71014;53.394;6.724;2023-10-19T03:28:56;14.45;;;7.55;;
81591;SDS011;71014;53.394;6.724;2023-10-19T03:31:26;16.27;;;9.18;;
81591;SDS011;71014;53.394;6.724;2023-10-19T03:33:53;11.73;;;7.35;;
81591;SDS011;71014;53.394;6.724;2023-10-19T03:36:25;12.95;;;6.68;;
81591;SDS011;71014;53.394;6.724;2023-10-19T03:38:51;10.77;;;7.18;;
81591;SDS011;71014;53.394;6.724;2023-10-19T03:41:21;11.85;;;6.68;;
81591;SDS011;71014;53.394;6.724;2023-10-19T03:43:51;11.23;;;7.03;;
81591;SDS011;71014;53.394;6.724;2023-10-19T03:46:19;8.57;;;6.35;;
81591;SDS011;71014;53.394;6.724;2023-10-19T03:48:49;10.18;;;6.95;;
81591;SDS011;71014;53.394;6.724;2023-10-19T03:51:16;12.02;;;6.75;;
81591;SDS011;71014;53.394;6.724;2023-10-19T03:53:42;10.57;;;6.90;;
81591;SDS011;71014;53.394;6.724;2023-10-19T03:56:20;9.40;;;6.25;;
81591;SDS011;71014;53.394;6.724;2023-10-19T03:58:46;9.82;;;5.75;;
81591;SDS011;71014;53.394;6.724;2023-10-19T04:01:16;8.32;;;5.22;;
81591;SDS011;71014;53.394;6.724;2023-10-19T04:03:42;9.07;;;5.65;;
81591;SDS011;71014;53.394;6.724;2023-10-19T04:06:09;7.57;;;6.05;;
81591;SDS011;71014;53.394;6.724;2023-10-19T04:08:40;6.68;;;4.20;;
81591;SDS011;71014;53.394;6.724;2023-10-19T04:11:07;8.15;;;5.45;;
81591;SDS011;71014;53.394;6.724;2023-10-19T04:13:34;6.03;;;4.53;;
81591;SDS011;71014;53.394;6.724;2023-10-19T04:16:01;8.48;;;5.20;;
81591;SDS011;71014;53.394;6.724;2023-10-19T04:18:27;6.55;;;4.63;;
81591;SDS011;71014;53.394;6.724;2023-10-19T04:20:53;8.25;;;5.10;;
81591;SDS011;71014;53.394;6.724;2023-10-19T04:23:23;5.40;;;4.03;;
81591;SDS011;71014;53.394;6.724;2023-10-19T04:25:53;7.25;;;4.07;;
81591;SDS011;71014;53.394;6.724;2023-10-19T04:28:21;4.82;;;3.17;;
81591;SDS011;71014;53.394;6.724;2023-10-19T04:30:58;5.65;;;3.72;;
81591;SDS011;71014;53.394;6.724;2023-10-19T04:33:31;5.30;;;4.05;;
81591;SDS011;71014;53.394;6.724;2023-10-19T04:35:59;5.68;;;4.20;;
81591;SDS011;71014;53.394;6.724;2023-10-19T04:38:26;6.10;;;4.15;;
81591;SDS011;71014;53.394;6.724;2023-10-19T04:40:57;7.50;;;4.22;;
81591;SDS011;71014;53.394;6.724;2023-10-19T04:43:28;6.07;;;3.58;;
81591;SDS011;71014;53.394;6.724;2023-10-19T04:45:54;7.22;;;3.92;;
81591;SDS011;71014;53.394;6.724;2023-10-19T04:48:20;5.82;;;4.22;;
81591;SDS011;71014;53.394;6.724;2023-10-19T04:50:46;7.25;;;4.28;;
81591;SDS011;71014;53.394;6.724;2023-10-19T04:53:14;7.35;;;4.05;;
81591;SDS011;71014;53.394;6.724;2023-10-19T04:55:40;9.25;;;4.18;;
81591;SDS011;71014;53.394;6.724;2023-10-19T05:00:33;7.97;;;4.25;;
81591;SDS011;71014;53.394;6.724;2023-10-19T05:02:59;5.60;;;3.88;;
81591;SDS011;71014;53.394;6.724;2023-10-19T05:05:26;5.43;;;3.75;;
81591;SDS011;71014;53.394;6.724;2023-10-19T05:07:52;6.15;;;4.60;;
81591;SDS011;71014;53.394;6.724;2023-10-19T05:10:18;6.70;;;4.32;;
81591;SDS011;71014;53.394;6.724;2023-10-19T05:12:44;4.57;;;3.33;;
81591;SDS011;71014;53.394;6.724;2023-10-19T05:15:10;6.20;;;3.28;;
81591;SDS011;71014;53.394;6.724;2023-10-19T05:17:36;4.43;;;3.67;;
81591;SDS011;71014;53.394;6.724;2023-10-19T05:20:03;5.50;;;4.03;;
81591;SDS011;71014;53.394;6.724;2023-10-19T05:22:30;5.32;;;3.25;;
81591;SDS011;71014;53.394;6.724;2023-10-19T05:27:23;5.03;;;3.50;;
81591;SDS011;71014;53.394;6.724;2023-10-19T05:29:50;5.28;;;3.10;;
81591;SDS011;71014;53.394;6.724;2023-10-19T05:32:16;4.80;;;3.80;;
81591;SDS011;71014;53.394;6.724;2023-10-19T05:34:42;7.22;;;3.78;;
81591;SDS011;71014;53.394;6.724;2023-10-19T05:37:08;6.10;;;3.97;;
81591;SDS011;71014;53.394;6.724;2023-10-19T05:42:01;4.00;;;3.20;;
81591;SDS011;71014;53.394;6.724;2023-10-19T05:44:28;3.85;;;2.97;;
81591;SDS011;71014;53.394;6.724;2023-10-19T05:46:55;4.28;;;3.05;;
81591;SDS011;71014;53.394;6.724;2023-10-19T05:49:21;8.48;;;4.10;;
81591;SDS011;71014;53.394;6.724;2023-10-19T05:51:49;5.65;;;3.67;;
81591;SDS011;71014;53.394;6.724;2023-10-19T05:54:15;6.32;;;3.78;;
81591;SDS011;71014;53.394;6.724;2023-10-19T05:56:42;4.32;;;3.00;;
81591;SDS011;71014;53.394;6.724;2023-10-19T05:59:08;4.93;;;2.92;;
81591;SDS011;71014;53.394;6.724;2023-10-19T06:01:35;5.43;;;3.30;;
81591;SDS011;71014;53.394;6.724;2023-10-19T06:04:02;4.00;;;2.78;;
81591;SDS011;71014;53.394;6.724;2023-10-19T06:06:28;3.97;;;2.78;;
81591;SDS011;71014;53.394;6.724;2023-10-19T06:08:54;5.88;;;3.10;;
81591;SDS011;71014;53.394;6.724;2023-10-19T06:11:20;4.57;;;3.08;;
81591;SDS011;71014;53.394;6.724;2023-10-19T06:13:46;3.35;;;2.40;;
81591;SDS011;71014;53.394;6.724;2023-10-19T06:16:12;4.28;;;2.70;;
81591;SDS011;71014;53.394;6.724;2023-10-19T06:18:39;3.58;;;2.35;;
81591;SDS011;71014;53.394;6.724;2023-10-19T06:21:05;3.95;;;2.13;;
81591;SDS011;71014;53.394;6.724;2023-10-19T06:23:31;4.75;;;3.00;;
81591;SDS011;71014;53.394;6.724;2023-10-19T06:25:57;4.25;;;2.85;;
81591;SDS011;71014;53.394;6.724;2023-10-19T06:28:25;4.03;;;2.50;;
81591;SDS011;71014;53.394;6.724;2023-10-19T06:30:51;2.75;;;2.10;;
81591;SDS011;71014;53.394;6.724;2023-10-19T06:33:18;4.95;;;2.90;;
81591;SDS011;71014;53.394;6.724;2023-10-19T06:35:44;6.25;;;2.97;;
81591;SDS011;71014;53.394;6.724;2023-10-19T06:38:10;3.97;;;2.63;;
81591;SDS011;71014;53.394;6.724;2023-10-19T06:40:36;4.70;;;3.08;;
81591;SDS011;71014;53.394;6.724;2023-10-19T06:43:02;4.13;;;2.33;;
81591;SDS011;71014;53.394;6.724;2023-10-19T06:45:30;4.35;;;2.90;;
81591;SDS011;71014;53.394;6.724;2023-10-19T06:47:56;2.88;;;2.53;;
81591;SDS011;71014;53.394;6.724;2023-10-19T06:50:23;5.00;;;3.22;;
81591;SDS011;71014;53.394;6.724;2023-10-19T06:52:49;3.25;;;2.25;;
81591;SDS011;71014;53.394;6.724;2023-10-19T06:55:16;3.17;;;2.80;;
81591;SDS011;71014;53.394;6.724;2023-10-19T06:57:44;3.88;;;2.60;;
81591;SDS011;71014;53.394;6.724;2023-10-19T07:00:14;4.50;;;3.17;;
81591;SDS011;71014;53.394;6.724;2023-10-19T07:02:41;4.25;;;3.13;;
81591;SDS011;71014;53.394;6.724;2023-10-19T07:05:08;5.18;;;2.58;;
81591;SDS011;71014;53.394;6.724;2023-10-19T07:07:38;5.57;;;3.20;;
81591;SDS011;71014;53.394;6.724;2023-10-19T07:10:05;3.60;;;3.20;;
81591;SDS011;71014;53.394;6.724;2023-10-19T07:12:31;5.40;;;3.65;;
81591;SDS011;71014;53.394;6.724;2023-10-19T07:14:57;4.72;;;2.97;;
81591;SDS011;71014;53.394;6.724;2023-10-19T07:17:26;5.40;;;3.63;;
81591;SDS011;71014;53.394;6.724;2023-10-19T07:19:52;4.78;;;3.58;;
81591;SDS011;71014;53.394;6.724;2023-10-19T07:22:18;4.82;;;3.53;;
81591;SDS011;71014;53.394;6.724;2023-10-19T07:24:48;4.63;;;3.60;;
81591;SDS011;71014;53.394;6.724;2023-10-19T07:27:14;5.00;;;3.35;;
81591;SDS011;71014;53.394;6.724;2023-10-19T07:29:46;4.30;;;3.35;;
81591;SDS011;71014;53.394;6.724;2023-10-19T07:32:13;3.72;;;2.95;;
81591;SDS011;71014;53.394;6.724;2023-10-19T07:34:41;3.33;;;2.72;;
81591;SDS011;71014;53.394;6.724;2023-10-19T07:37:09;3.95;;;3.17;;
81591;SDS011;71014;53.394;6.724;2023-10-19T07:39:40;5.20;;;2.95;;
81591;SDS011;71014;53.394;6.724;2023-10-19T07:42:07;3.95;;;2.90;;
81591;SDS011;71014;53.394;6.724;2023-10-19T07:44:33;3.65;;;2.42;;
81591;SDS011;71014;53.394;6.724;2023-10-19T07:46:59;2.85;;;2.50;;
81591;SDS011;71014;53.394;6.724;2023-10-19T07:49:25;2.65;;;2.42;;
81591;SDS011;71014;53.394;6.724;2023-10-19T07:51:51;2.78;;;2.50;;
81591;SDS011;71014;53.394;6.724;2023-10-19T07:54:17;3.08;;;2.15;;
81591;SDS011;71014;53.394;6.724;2023-10-19T07:56:45;2.88;;;2.45;;
81591;SDS011;71014;53.394;6.724;2023-10-19T07:59:12;3.63;;;2.67;;
81591;SDS011;71014;53.394;6.724;2023-10-19T08:01:38;3.53;;;2.28;;
81591;SDS011;71014;53.394;6.724;2023-10-19T08:04:04;2.13;;;1.92;;
81591;SDS011;71014;53.394;6.724;2023-10-19T08:06:31;4.10;;;2.67;;
81591;SDS011;71014;53.394;6.724;2023-10-19T08:08:57;4.95;;;2.50;;
81591;SDS011;71014;53.394;6.724;2023-10-19T08:11:24;3.42;;;2.80;;
81591;SDS011;71014;53.394;6.724;2023-10-19T08:13:50;3.30;;;2.22;;
81591;SDS011;71014;53.394;6.724;2023-10-19T08:16:16;4.38;;;2.90;;
81591;SDS011;71014;53.394;6.724;2023-10-19T08:18:43;4.70;;;2.70;;
81591;SDS011;71014;53.394;6.724;2023-10-19T08:21:09;4.40;;;2.25;;
81591;SDS011;71014;53.394;6.724;2023-10-19T08:23:35;3.05;;;2.58;;
81591;SDS011;71014;53.394;6.724;2023-10-19T08:26:02;3.15;;;2.15;;
81591;SDS011;71014;53.394;6.724;2023-10-19T08:28:30;3.50;;;2.33;;
81591;SDS011;71014;53.394;6.724;2023-10-19T08:30:57;2.92;;;2.20;;
81591;SDS011;71014;53.394;6.724;2023-10-19T08:33:25;3.13;;;2.25;;
81591;SDS011;71014;53.394;6.724;2023-10-19T08:35:54;3.47;;;2.00;;
81591;SDS011;71014;53.394;6.724;2023-10-19T08:38:21;4.80;;;2.60;;
81591;SDS011;71014;53.394;6.724;2023-10-19T08:40:48;3.13;;;2.47;;
81591;SDS011;71014;53.394;6.724;2023-10-19T08:43:15;3.53;;;2.38;;
81591;SDS011;71014;53.394;6.724;2023-10-19T08:45:43;3.22;;;2.47;;
81591;SDS011;71014;53.394;6.724;2023-10-19T08:48:09;3.25;;;2.30;;
81591;SDS011;71014;53.394;6.724;2023-10-19T08:50:36;2.72;;;2.00;;
81591;SDS011;71014;53.394;6.724;2023-10-19T08:53:03;4.20;;;2.83;;
81591;SDS011;71014;53.394;6.724;2023-10-19T08:55:29;3.78;;;2.75;;
81591;SDS011;71014;53.394;6.724;2023-10-19T08:57:56;3.60;;;2.10;;
81591;SDS011;71014;53.394;6.724;2023-10-19T09:00:25;2.67;;;2.33;;
81591;SDS011;71014;53.394;6.724;2023-10-19T09:02:52;3.22;;;2.35;;
81591;SDS011;71014;53.394;6.724;2023-10-19T09:05:18;2.22;;;1.85;;
81591;SDS011;71014;53.394;6.724;2023-10-19T09:07:47;3.05;;;2.15;;
81591;SDS011;71014;53.394;6.724;2023-10-19T09:10:19;2.58;;;2.20;;
81591;SDS011;71014;53.394;6.724;2023-10-19T09:12:52;2.70;;;2.10;;
81591;SDS011;71014;53.394;6.724;2023-10-19T09:15:24;2.40;;;2.03;;
81591;SDS011;71014;53.394;6.724;2023-10-19T09:17:51;3.50;;;2.60;;
81591;SDS011;71014;53.394;6.724;2023-10-19T09:20:20;2.65;;;1.88;;
81591;SDS011;71014;53.394;6.724;2023-10-19T09:22:52;4.25;;;2.40;;
81591;SDS011;71014;53.394;6.724;2023-10-19T09:25:19;2.30;;;1.80;;
81591;SDS011;71014;53.394;6.724;2023-10-19T09:27:46;2.08;;;1.70;;
81591;SDS011;71014;53.394;6.724;2023-10-19T09:30:13;2.70;;;2.17;;
81591;SDS011;71014;53.394;6.724;2023-10-19T09:32:45;2.40;;;1.85;;
81591;SDS011;71014;53.394;6.724;2023-10-19T09:35:11;3.50;;;2.17;;
81591;SDS011;71014;53.394;6.724;2023-10-19T09:37:41;2.28;;;1.65;;
81591;SDS011;71014;53.394;6.724;2023-10-19T09:40:08;2.22;;;1.95;;
81591;SDS011;71014;53.394;6.724;2023-10-19T09:42:38;2.25;;;2.03;;
81591;SDS011;71014;53.394;6.724;2023-10-19T09:45:10;2.33;;;2.05;;
81591;SDS011;71014;53.394;6.724;2023-10-19T09:47:38;2.35;;;1.90;;
81591;SDS011;71014;53.394;6.724;2023-10-19T09:50:04;2.10;;;1.52;;
81591;SDS011;71014;53.394;6.724;2023-10-19T09:52:36;2.17;;;1.77;;
81591;SDS011;71014;53.394;6.724;2023-10-19T09:57:32;1.95;;;1.75;;
81591;SDS011;71014;53.394;6.724;2023-10-19T10:00:02;1.77;;;1.52;;
81591;SDS011;71014;53.394;6.724;2023-10-19T10:02:39;1.70;;;1.33;;
81591;SDS011;71014;53.394;6.724;2023-10-19T10:10:36;1.95;;;1.75;;
81591;SDS011;71014;53.394;6.724;2023-10-19T10:13:35;2.38;;;1.70;;
81591;SDS011;71014;53.394;6.724;2023-10-19T10:15:57;2.83;;;1.52;;
81591;SDS011;71014;53.394;6.724;2023-10-19T10:18:30;2.17;;;1.73;;
81591;SDS011;71014;53.394;6.724;2023-10-19T10:23:52;2.65;;;1.95;;
81591;SDS011;71014;53.394;6.724;2023-10-19T10:26:18;3.40;;;2.10;;
81591;SDS011;71014;53.394;6.724;2023-10-19T10:28:45;2.35;;;2.00;;
81591;SDS011;71014;53.394;6.724;2023-10-19T10:31:13;1.98;;;1.50;;
81591;SDS011;71014;53.394;6.724;2023-10-19T10:33:44;2.28;;;1.40;;
81591;SDS011;71014;53.394;6.724;2023-10-19T10:36:11;1.80;;;1.70;;
81591;SDS011;71014;53.394;6.724;2023-10-19T10:38:38;1.52;;;1.42;;
81591;SDS011;71014;53.394;6.724;2023-10-19T10:41:04;1.90;;;1.70;;
81591;SDS011;71014;53.394;6.724;2023-10-19T10:43:47;2.17;;;1.70;;
81591;SDS011;71014;53.394;6.724;2023-10-19T10:46:13;2.53;;;1.75;;
81591;SDS011;71014;53.394;6.724;2023-10-19T10:48:42;3.08;;;1.80;;
81591;SDS011;71014;53.394;6.724;2023-10-19T10:51:15;2.22;;;1.80;;
81591;SDS011;71014;53.394;6.724;2023-10-19T10:53:41;2.10;;;1.75;;
81591;SDS011;71014;53.394;6.724;2023-10-19T10:56:07;2.05;;;1.63;;
81591;SDS011;71014;53.394;6.724;2023-10-19T10:58:33;2.95;;;1.92;;
81591;SDS011;71014;53.394;6.724;2023-10-19T11:00:58;1.70;;;1.60;;
81591;SDS011;71014;53.394;6.724;2023-10-19T11:03:25;1.50;;;1.27;;
81591;SDS011;71014;53.394;6.724;2023-10-19T11:05:55;2.30;;;1.42;;
81591;SDS011;71014;53.394;6.724;2023-10-19T11:08:23;1.98;;;1.65;;
81591;SDS011;71014;53.394;6.724;2023-10-19T11:10:49;1.95;;;1.73;;
81591;SDS011;71014;53.394;6.724;2023-10-19T11:13:16;2.53;;;1.73;;
81591;SDS011;71014;53.394;6.724;2023-10-19T11:15:49;1.58;;;1.40;;
81591;SDS011;71014;53.394;6.724;2023-10-19T11:21:10;2.15;;;1.65;;
81591;SDS011;71014;53.394;6.724;2023-10-19T11:26:02;2.10;;;1.50;;
81591;SDS011;71014;53.394;6.724;2023-10-19T11:28:30;3.50;;;1.80;;
81591;SDS011;71014;53.394;6.724;2023-10-19T11:31:18;3.33;;;1.75;;
81591;SDS011;71014;53.394;6.724;2023-10-19T11:33:44;2.28;;;1.55;;
81591;SDS011;71014;53.394;6.724;2023-10-19T11:36:11;1.65;;;1.50;;
81591;SDS011;71014;53.394;6.724;2023-10-19T11:38:44;2.15;;;1.60;;
81591;SDS011;71014;53.394;6.724;2023-10-19T11:41:10;1.90;;;1.80;;
81591;SDS011;71014;53.394;6.724;2023-10-19T11:43:38;2.03;;;1.70;;
81591;SDS011;71014;53.394;6.724;2023-10-19T11:46:04;1.75;;;1.40;;
81591;SDS011;71014;53.394;6.724;2023-10-19T11:48:31;1.70;;;1.60;;
81591;SDS011;71014;53.394;6.724;2023-10-19T11:50:57;1.90;;;1.40;;
81591;SDS011;71014;53.394;6.724;2023-10-19T11:53:23;1.48;;;1.38;;
81591;SDS011;71014;53.394;6.724;2023-10-19T11:55:49;1.73;;;1.40;;
81591;SDS011;71014;53.394;6.724;2023-10-19T11:58:16;1.95;;;1.40;;
81591;SDS011;71014;53.394;6.724;2023-10-19T12:00:42;2.78;;;1.55;;
81591;SDS011;71014;53.394;6.724;2023-10-19T12:03:11;2.00;;;1.80;;
81591;SDS011;71014;53.394;6.724;2023-10-19T12:05:37;2.17;;;1.70;;
81591;SDS011;71014;53.394;6.724;2023-10-19T12:08:03;2.65;;;1.55;;
81591;SDS011;71014;53.394;6.724;2023-10-19T12:10:29;2.72;;;1.88;;
81591;SDS011;71014;53.394;6.724;2023-10-19T12:13:03;2.45;;;1.88;;
81591;SDS011;71014;53.394;6.724;2023-10-19T12:15:30;1.65;;;1.50;;
81591;SDS011;71014;53.394;6.724;2023-10-19T12:17:57;2.05;;;1.73;;
81591;SDS011;71014;53.394;6.724;2023-10-19T12:20:23;2.08;;;1.48;;
81591;SDS011;71014;53.394;6.724;2023-10-19T12:22:49;2.20;;;1.50;;
81591;SDS011;71014;53.394;6.724;2023-10-19T12:25:21;3.10;;;1.73;;
81591;SDS011;71014;53.394;6.724;2023-10-19T12:28:00;3.25;;;1.60;;
81591;SDS011;71014;53.394;6.724;2023-10-19T12:30:30;1.50;;;1.40;;
81591;SDS011;71014;53.394;6.724;2023-10-19T12:35:40;1.90;;;1.13;;
81591;SDS011;71014;53.394;6.724;2023-10-19T12:38:32;2.35;;;1.35;;
81591;SDS011;71014;53.394;6.724;2023-10-19T12:40:58;2.33;;;1.73;;
81591;SDS011;71014;53.394;6.724;2023-10-19T12:43:24;2.42;;;1.42;;
81591;SDS011;71014;53.394;6.724;2023-10-19T12:45:50;1.60;;;1.17;;
81591;SDS011;71014;53.394;6.724;2023-10-19T12:48:18;3.00;;;1.30;;
81591;SDS011;71014;53.394;6.724;2023-10-19T12:50:45;1.88;;;1.38;;
81591;SDS011;71014;53.394;6.724;2023-10-19T12:53:11;1.85;;;1.50;;
81591;SDS011;71014;53.394;6.724;2023-10-19T12:55:38;2.53;;;1.50;;
81591;SDS011;71014;53.394;6.724;2023-10-19T12:58:05;1.50;;;1.40;;
81591;SDS011;71014;53.394;6.724;2023-10-19T13:00:39;1.80;;;1.25;;
81591;SDS011;71014;53.394;6.724;2023-10-19T13:03:07;1.65;;;1.10;;
81591;SDS011;71014;53.394;6.724;2023-10-19T13:05:36;1.35;;;1.15;;
81591;SDS011;71014;53.394;6.724;2023-10-19T13:08:07;1.52;;;0.95;;
81591;SDS011;71014;53.394;6.724;2023-10-19T13:10:34;2.38;;;1.10;;
81591;SDS011;71014;53.394;6.724;2023-10-19T13:13:02;1.45;;;1.30;;
81591;SDS011;71014;53.394;6.724;2023-10-19T13:15:32;2.85;;;1.27;;
81591;SDS011;71014;53.394;6.724;2023-10-19T13:17:59;2.72;;;1.95;;
81591;SDS011;71014;53.394;6.724;2023-10-19T13:20:26;1.30;;;1.13;;
81591;SDS011;71014;53.394;6.724;2023-10-19T13:22:53;1.85;;;1.30;;
81591;SDS011;71014;53.394;6.724;2023-10-19T13:25:21;2.13;;;1.35;;
81591;SDS011;71014;53.394;6.724;2023-10-19T13:28:04;3.30;;;1.63;;
81591;SDS011;71014;53.394;6.724;2023-10-19T13:30:30;2.25;;;1.65;;
81591;SDS011;71014;53.394;6.724;2023-10-19T13:32:56;1.42;;;1.33;;
81591;SDS011;71014;53.394;6.724;2023-10-19T13:35:22;1.50;;;1.40;;
81591;SDS011;71014;53.394;6.724;2023-10-19T13:37:48;2.33;;;1.48;;
81591;SDS011;71014;53.394;6.724;2023-10-19T13:40:14;2.35;;;1.58;;
81591;SDS011;71014;53.394;6.724;2023-10-19T13:42:40;3.08;;;2.28;;
81591;SDS011;71014;53.394;6.724;2023-10-19T13:45:10;2.33;;;1.58;;
81591;SDS011;71014;53.394;6.724;2023-10-19T13:47:39;7.38;;;2.55;;
81591;SDS011;71014;53.394;6.724;2023-10-19T13:50:05;4.55;;;2.40;;
81591;SDS011;71014;53.394;6.724;2023-10-19T13:52:32;3.95;;;2.40;;
81591;SDS011;71014;53.394;6.724;2023-10-19T13:55:01;3.67;;;2.10;;
81591;SDS011;71014;53.394;6.724;2023-10-19T13:57:28;2.75;;;1.95;;
81591;SDS011;71014;53.394;6.724;2023-10-19T13:59:54;4.97;;;2.50;;
81591;SDS011;71014;53.394;6.724;2023-10-19T14:02:20;4.20;;;2.40;;
81591;SDS011;71014;53.394;6.724;2023-10-19T14:04:46;5.38;;;2.95;;
81591;SDS011;71014;53.394;6.724;2023-10-19T14:07:12;3.33;;;2.40;;
81591;SDS011;71014;53.394;6.724;2023-10-19T14:09:38;3.00;;;2.42;;
81591;SDS011;71014;53.394;6.724;2023-10-19T14:12:04;3.72;;;2.33;;
81591;SDS011;71014;53.394;6.724;2023-10-19T14:14:30;4.03;;;2.60;;
81591;SDS011;71014;53.394;6.724;2023-10-19T14:16:56;3.03;;;2.35;;
81591;SDS011;71014;53.394;6.724;2023-10-19T14:19:23;4.75;;;2.72;;
81591;SDS011;71014;53.394;6.724;2023-10-19T14:21:49;3.60;;;2.58;;
81591;SDS011;71014;53.394;6.724;2023-10-19T14:24:16;5.38;;;2.55;;
81591;SDS011;71014;53.394;6.724;2023-10-19T14:26:43;3.33;;;2.38;;
81591;SDS011;71014;53.394;6.724;2023-10-19T14:29:11;3.45;;;2.83;;
81591;SDS011;71014;53.394;6.724;2023-10-19T14:31:38;6.15;;;2.95;;
81591;SDS011;71014;53.394;6.724;2023-10-19T14:34:04;4.10;;;2.50;;
81591;SDS011;71014;53.394;6.724;2023-10-19T14:36:30;3.50;;;3.20;;
81591;SDS011;71014;53.394;6.724;2023-10-19T14:38:56;3.30;;;2.40;;
81591;SDS011;71014;53.394;6.724;2023-10-19T14:41:22;4.32;;;2.78;;
81591;SDS011;71014;53.394;6.724;2023-10-19T14:43:49;4.07;;;3.08;;
81591;SDS011;71014;53.394;6.724;2023-10-19T14:46:15;4.50;;;2.58;;
81591;SDS011;71014;53.394;6.724;2023-10-19T14:48:41;4.57;;;3.03;;
81591;SDS011;71014;53.394;6.724;2023-10-19T14:51:07;4.68;;;3.08;;
81591;SDS011;71014;53.394;6.724;2023-10-19T14:53:33;3.65;;;2.88;;
81591;SDS011;71014;53.394;6.724;2023-10-19T14:55:59;4.70;;;3.33;;
81591;SDS011;71014;53.394;6.724;2023-10-19T14:58:26;4.57;;;3.85;;
81591;SDS011;71014;53.394;6.724;2023-10-19T15:00:54;6.35;;;3.60;;
81591;SDS011;71014;53.394;6.724;2023-10-19T15:03:20;6.50;;;3.80;;
81591;SDS011;71014;53.394;6.724;2023-10-19T15:05:51;6.95;;;4.30;;
81591;SDS011;71014;53.394;6.724;2023-10-19T15:08:18;6.88;;;3.92;;
81591;SDS011;71014;53.394;6.724;2023-10-19T15:10:53;5.38;;;3.22;;
81591;SDS011;71014;53.394;6.724;2023-10-19T15:13:19;7.18;;;4.47;;
81591;SDS011;71014;53.394;6.724;2023-10-19T15:15:45;6.78;;;4.07;;